createdAt,value
2023-02-28T00:00:31.467Z,0.40
2023-02-28T00:03:24.412Z,0.41
2023-02-28T00:06:00.488Z,0.41
2023-02-28T00:08:33.693Z,0.41
2023-02-28T00:11:05.331Z,0.56
2023-02-28T00:13:40.718Z,0.50
2023-02-28T00:16:15.941Z,0.45
2023-02-28T00:18:48.917Z,0.51
2023-02-28T00:21:22.123Z,0.49
2023-02-28T00:23:54.200Z,0.45
2023-02-28T00:26:27.062Z,0.42
2023-02-28T00:28:59.973Z,0.38
2023-02-28T00:31:31.273Z,0.49
2023-02-28T00:34:04.337Z,0.43
2023-02-28T00:36:37.908Z,0.32
2023-02-28T00:39:10.728Z,0.25
2023-02-28T00:41:43.294Z,0.17
2023-02-28T00:44:16.136Z,0.19
2023-02-28T00:46:48.754Z,0.17
2023-02-28T00:49:21.648Z,0.15
2023-02-28T00:51:54.404Z,0.13
2023-02-28T00:54:26.922Z,0.22
2023-02-28T00:56:59.470Z,0.25
2023-02-28T00:59:30.489Z,0.22
2023-02-28T01:02:02.855Z,0.33
2023-02-28T01:04:33.723Z,0.27
2023-02-28T01:07:07.467Z,0.26
2023-02-28T01:09:40.280Z,0.27
2023-02-28T01:12:12.676Z,0.18
2023-02-28T01:14:45.002Z,0.08
2023-02-28T01:17:17.451Z,0.04
2023-02-28T01:19:50.439Z,-0.02
2023-02-28T01:22:22.682Z,-0.00
2023-02-28T01:24:55.167Z,-0.06
2023-02-28T01:27:28.158Z,-0.13
2023-02-28T01:30:01.265Z,-0.13
2023-02-28T01:32:33.679Z,-0.13
2023-02-28T01:35:07.193Z,-0.14
2023-02-28T01:37:40.473Z,-0.15
2023-02-28T01:40:15.906Z,-0.16
2023-02-28T01:42:47.791Z,-0.18
2023-02-28T01:45:24.733Z,-0.18
2023-02-28T01:48:01.105Z,-0.16
2023-02-28T01:50:37.204Z,-0.16
2023-02-28T01:53:14.165Z,-0.20
2023-02-28T01:55:50.647Z,-0.21
2023-02-28T01:58:23.287Z,-0.24
2023-02-28T02:00:53.895Z,-0.19
2023-02-28T02:03:25.923Z,-0.20
2023-02-28T02:05:56.786Z,-0.29
2023-02-28T02:08:31.000Z,-0.35
2023-02-28T02:11:04.399Z,-0.38
2023-02-28T02:13:53.917Z,-0.37
2023-02-28T02:16:43.532Z,-0.40
2023-02-28T02:19:41.992Z,-0.40
2023-02-28T02:22:45.593Z,-0.28
2023-02-28T02:25:36.072Z,-0.34
2023-02-28T02:28:49.517Z,-0.39
2023-02-28T02:31:50.700Z,-0.42
2023-02-28T02:34:43.495Z,-0.43
2023-02-28T02:37:30.216Z,-0.40
2023-02-28T02:40:11.661Z,-0.42
2023-02-28T02:42:51.825Z,-0.48
2023-02-28T02:45:28.343Z,-0.53
2023-02-28T02:48:03.879Z,-0.52
2023-02-28T02:50:42.970Z,-0.53
2023-02-28T02:53:20.304Z,-0.56
2023-02-28T02:55:56.328Z,-0.56
2023-02-28T02:58:34.496Z,-0.56
2023-02-28T03:01:11.299Z,-0.60
2023-02-28T03:03:45.712Z,-0.47
2023-02-28T03:06:18.766Z,-0.36
2023-02-28T03:08:50.800Z,-0.31
2023-02-28T03:11:23.394Z,-0.34
2023-02-28T03:14:23.687Z,-0.48
2023-02-28T03:17:13.820Z,-0.56
2023-02-28T03:19:57.034Z,-0.47
2023-02-28T03:22:53.644Z,-0.40
2023-02-28T03:25:33.888Z,-0.40
2023-02-28T03:28:10.929Z,-0.38
2023-02-28T03:30:48.610Z,-0.40
2023-02-28T03:33:25.294Z,-0.36
2023-02-28T03:36:01.602Z,-0.45
2023-02-28T03:38:37.468Z,-0.49
2023-02-28T03:41:15.467Z,-0.54
2023-02-28T03:43:53.254Z,-0.45
2023-02-28T03:46:28.531Z,-0.40
2023-02-28T03:49:07.937Z,-0.38
2023-02-28T03:51:43.510Z,-0.29
2023-02-28T03:54:19.840Z,-0.26
2023-02-28T03:56:58.573Z,-0.33
2023-02-28T03:59:34.891Z,-0.39
2023-02-28T04:02:06.686Z,-0.38
2023-02-28T04:04:38.602Z,-0.52
2023-02-28T04:07:13.146Z,-0.57
2023-02-28T04:09:45.112Z,-0.60
2023-02-28T04:12:17.070Z,-0.72
2023-02-28T04:14:48.792Z,-0.71
2023-02-28T04:17:20.817Z,-0.69
2023-02-28T04:19:52.506Z,-0.80
2023-02-28T04:22:26.730Z,-0.82
2023-02-28T04:24:58.692Z,-0.83
2023-02-28T04:27:32.690Z,-0.90
2023-02-28T04:30:04.887Z,-1.01
2023-02-28T04:32:36.742Z,-1.02
2023-02-28T04:35:12.299Z,-1.04
2023-02-28T04:37:44.342Z,-1.01
2023-02-28T04:40:16.552Z,-0.98
2023-02-28T04:42:48.532Z,-0.83
2023-02-28T04:45:20.294Z,-0.81
2023-02-28T04:47:51.949Z,-0.89
2023-02-28T04:50:23.683Z,-0.92
2023-02-28T04:52:55.664Z,-0.94
2023-02-28T04:55:27.408Z,-0.96
2023-02-28T04:57:59.098Z,-0.96
2023-02-28T05:00:30.843Z,-0.89
2023-02-28T05:03:02.802Z,-0.78
2023-02-28T05:05:35.259Z,-0.82
2023-02-28T05:08:07.473Z,-0.86
2023-02-28T05:10:40.246Z,-0.88
2023-02-28T05:13:14.887Z,-0.86
2023-02-28T05:15:46.730Z,-0.76
2023-02-28T05:18:18.418Z,-0.72
2023-02-28T05:20:50.400Z,-0.64
2023-02-28T05:23:24.967Z,-0.60
2023-02-28T05:25:57.394Z,-0.57
2023-02-28T05:28:29.775Z,-0.63
2023-02-28T05:31:01.769Z,-0.62
2023-02-28T05:33:33.806Z,-0.67
2023-02-28T05:36:06.331Z,-0.79
2023-02-28T05:38:38.804Z,-0.90
2023-02-28T05:41:12.214Z,-1.02
2023-02-28T05:43:44.100Z,-1.13
2023-02-28T05:46:16.870Z,-1.15
2023-02-28T05:48:50.358Z,-1.18
2023-02-28T05:51:22.087Z,-1.27
2023-02-28T05:53:54.151Z,-1.29
2023-02-28T05:56:25.855Z,-1.28
2023-02-28T05:58:57.590Z,-1.24
2023-02-28T06:01:37.428Z,-1.30
2023-02-28T06:04:22.324Z,-1.43
2023-02-28T06:07:02.592Z,-1.42
2023-02-28T06:09:34.435Z,-1.38
2023-02-28T06:12:10.680Z,-1.26
2023-02-28T06:14:42.617Z,-1.13
2023-02-28T06:17:14.488Z,-1.02
2023-02-28T06:19:46.230Z,-1.06
2023-02-28T06:22:17.967Z,-1.05
2023-02-28T06:24:49.715Z,-1.06
2023-02-28T06:27:21.517Z,-1.09
2023-02-28T06:29:57.402Z,-1.11
2023-02-28T06:32:29.140Z,-1.05
2023-02-28T06:35:01.007Z,-1.13
2023-02-28T06:37:33.975Z,-1.11
2023-02-28T06:40:07.961Z,-1.02
2023-02-28T06:42:39.661Z,-1.00
2023-02-28T06:45:13.102Z,-1.00
2023-02-28T06:47:45.228Z,-1.00
2023-02-28T06:50:18.661Z,-1.03
2023-02-28T06:52:54.832Z,-0.97
2023-02-28T06:55:27.112Z,-0.96
2023-02-28T06:57:59.307Z,-0.98
2023-02-28T07:00:31.002Z,-0.94
2023-02-28T07:03:02.742Z,-0.92
2023-02-28T07:05:36.338Z,-0.81
2023-02-28T07:08:09.253Z,-0.78
2023-02-28T07:10:42.019Z,-0.57
2023-02-28T07:13:14.088Z,-0.45
2023-02-28T07:15:46.965Z,-0.43
2023-02-28T07:18:18.832Z,-0.47
2023-02-28T07:20:50.525Z,-0.34
2023-02-28T07:23:22.364Z,-0.31
2023-02-28T07:25:54.575Z,-0.25
2023-02-28T07:28:26.370Z,-0.22
2023-02-28T07:30:58.256Z,-0.15
2023-02-28T07:33:30.027Z,-0.14
2023-02-28T07:36:05.889Z,-0.16
2023-02-28T07:38:39.333Z,-0.10
2023-02-28T07:41:11.691Z,-0.09
2023-02-28T07:43:43.648Z,-0.01
2023-02-28T07:46:17.594Z,0.13
2023-02-28T07:48:49.503Z,0.27
2023-02-28T07:51:21.870Z,0.35
2023-02-28T07:53:53.827Z,0.43
2023-02-28T07:56:25.656Z,0.29
2023-02-28T07:58:57.639Z,0.24
2023-02-28T08:01:29.785Z,0.33
2023-02-28T08:04:01.785Z,0.33
2023-02-28T08:06:33.973Z,0.37
2023-02-28T08:09:06.189Z,0.53
2023-02-28T08:11:38.377Z,0.54
2023-02-28T08:14:10.155Z,0.61
2023-02-28T08:16:43.824Z,0.69
2023-02-28T08:19:15.996Z,0.76
2023-02-28T08:21:47.755Z,0.78
2023-02-28T08:24:19.559Z,0.83
2023-02-28T08:26:51.726Z,0.80
2023-02-28T08:29:24.224Z,0.85
2023-02-28T08:31:56.224Z,0.94
2023-02-28T08:34:28.372Z,1.05
2023-02-28T08:37:00.190Z,1.14
2023-02-28T08:39:32.216Z,1.12
2023-02-28T08:42:08.143Z,1.15
2023-02-28T08:44:41.508Z,1.10
2023-02-28T08:47:14.180Z,1.17
2023-02-28T08:49:46.199Z,1.28
2023-02-28T08:52:18.977Z,1.44
2023-02-28T08:54:51.212Z,1.57
2023-02-28T08:57:22.899Z,1.66
2023-02-28T08:59:54.661Z,1.66
2023-02-28T09:02:26.441Z,1.58
2023-02-28T09:04:59.019Z,1.57
2023-02-28T09:07:30.886Z,1.57
2023-02-28T09:10:02.627Z,1.59
2023-02-28T09:12:36.849Z,1.68
2023-02-28T09:15:11.174Z,1.87
2023-02-28T09:17:45.698Z,1.83
2023-02-28T09:20:19.188Z,1.77
2023-02-28T09:22:51.235Z,1.86
2023-02-28T09:25:23.038Z,1.97
2023-02-28T09:27:54.776Z,2.04
2023-02-28T09:30:26.585Z,2.20
2023-02-28T09:32:58.580Z,2.28
2023-02-28T09:35:31.620Z,2.30
2023-02-28T09:38:04.016Z,2.30
2023-02-28T09:40:39.529Z,2.32
2023-02-28T09:43:16.642Z,2.46
2023-02-28T09:45:53.799Z,2.65
2023-02-28T09:48:31.292Z,2.81
2023-02-28T09:51:08.281Z,2.92
2023-02-28T09:53:43.993Z,3.05
2023-02-28T09:56:27.420Z,3.18
2023-02-28T09:59:03.812Z,3.21
2023-02-28T10:01:41.468Z,3.11
2023-02-28T10:04:26.056Z,3.18
2023-02-28T10:06:58.791Z,3.34
2023-02-28T10:09:34.993Z,3.52
2023-02-28T10:12:11.664Z,3.77
2023-02-28T10:14:50.248Z,3.88
2023-02-28T10:17:27.195Z,3.89
2023-02-28T10:20:08.732Z,3.77
2023-02-28T10:22:50.460Z,3.90
2023-02-28T10:25:25.659Z,3.79
2023-02-28T10:28:03.821Z,3.88
2023-02-28T10:30:39.727Z,4.12
2023-02-28T10:33:21.207Z,4.44
2023-02-28T10:35:54.209Z,4.56
2023-02-28T10:38:28.408Z,4.86
2023-02-28T10:41:10.738Z,5.11
2023-02-28T10:43:45.844Z,5.27
2023-02-28T10:46:26.534Z,5.17
2023-02-28T10:49:08.312Z,5.15
2023-02-28T10:51:43.404Z,5.15
2023-02-28T10:54:22.765Z,4.89
2023-02-28T10:57:19.331Z,4.99
2023-02-28T10:59:55.892Z,5.32
2023-02-28T11:02:37.333Z,5.76
2023-02-28T11:05:28.325Z,5.98
2023-02-28T11:08:07.413Z,6.20
2023-02-28T11:10:39.507Z,6.31
2023-02-28T11:13:21.680Z,6.37
2023-02-28T11:15:59.401Z,6.50
2023-02-28T11:18:38.639Z,6.63
2023-02-28T11:21:11.965Z,6.42
2023-02-28T11:23:44.932Z,6.19
2023-02-28T11:26:18.409Z,6.28
2023-02-28T11:29:05.288Z,6.45
2023-02-28T11:31:36.992Z,6.35
2023-02-28T11:34:28.520Z,6.38
2023-02-28T11:37:05.818Z,6.62
2023-02-28T11:39:38.231Z,6.29
2023-02-28T11:42:24.980Z,6.62
2023-02-28T11:45:06.705Z,6.96
2023-02-28T11:47:46.710Z,7.18
2023-02-28T11:50:34.513Z,7.39
2023-02-28T11:53:16.560Z,7.55
2023-02-28T11:55:56.579Z,7.62
2023-02-28T11:58:40.854Z,7.70
2023-02-28T12:01:25.924Z,7.71
2023-02-28T12:04:12.960Z,7.60
2023-02-28T12:06:52.376Z,7.55
2023-02-28T12:09:43.486Z,7.60
2023-02-28T12:12:32.651Z,7.67
2023-02-28T12:15:18.914Z,7.71
2023-02-28T12:18:00.646Z,7.90
2023-02-28T12:20:40.291Z,8.03
2023-02-28T12:26:30.468Z,8.06
2023-02-28T12:29:11.671Z,8.07
2023-02-28T12:31:47.734Z,8.05
2023-02-28T12:34:25.435Z,8.17
2023-02-28T12:37:01.131Z,8.09
2023-02-28T12:39:49.451Z,7.93
2023-02-28T12:42:30.100Z,8.05
2023-02-28T12:45:04.073Z,8.10
2023-02-28T12:47:35.983Z,8.14
2023-02-28T12:50:12.746Z,8.19
2023-02-28T12:52:53.912Z,7.87
2023-02-28T12:55:35.629Z,8.07
2023-02-28T12:58:14.872Z,8.22
2023-02-28T13:01:11.106Z,8.16
2023-02-28T13:04:21.914Z,8.14
2023-02-28T13:07:15.585Z,8.00
2023-02-28T13:09:56.874Z,7.56
2023-02-28T13:12:29.802Z,7.71
2023-02-28T13:15:13.296Z,7.70
2023-02-28T13:17:50.490Z,7.51
2023-02-28T13:20:25.469Z,7.30
2023-02-28T13:22:59.174Z,7.52
2023-02-28T13:25:54.556Z,7.79
2023-02-28T13:29:10.015Z,7.82
2023-02-28T13:32:19.044Z,7.71
2023-02-28T13:35:31.236Z,7.86
2023-02-28T13:38:35.349Z,7.81
2023-02-28T13:41:48.662Z,7.93
2023-02-28T13:44:24.836Z,8.06
2023-02-28T13:47:30.733Z,8.11
2023-02-28T13:50:31.294Z,8.21
2023-02-28T13:53:34.326Z,8.29
2023-02-28T13:56:22.418Z,8.20
2023-02-28T13:59:03.081Z,8.27
2023-02-28T14:02:00.397Z,8.18
2023-02-28T14:05:04.494Z,8.20
2023-02-28T14:07:41.557Z,8.06
2023-02-28T14:10:27.684Z,7.73
2023-02-28T14:13:03.315Z,7.83
2023-02-28T14:15:57.291Z,7.93
2023-02-28T14:18:33.925Z,7.93
2023-02-28T14:21:18.626Z,7.81
2023-02-28T14:24:30.541Z,7.78
2023-02-28T14:27:17.468Z,7.85
2023-02-28T14:30:13.582Z,7.87
2023-02-28T14:32:53.241Z,7.89
2023-02-28T14:35:41.887Z,7.78
2023-02-28T14:38:22.230Z,7.56
2023-02-28T14:40:57.354Z,7.58
2023-02-28T14:43:30.291Z,7.47
2023-02-28T14:46:04.936Z,7.57
2023-02-28T14:48:39.317Z,7.59
2023-02-28T14:51:12.572Z,7.53
2023-02-28T14:53:45.510Z,7.48
2023-02-28T14:56:25.942Z,7.53
2023-02-28T14:58:59.372Z,7.38
2023-02-28T15:01:32.958Z,7.01
2023-02-28T15:04:07.401Z,6.79
2023-02-28T15:06:39.659Z,6.61
2023-02-28T15:09:16.553Z,6.57
2023-02-28T15:11:51.897Z,6.65
2023-02-28T15:14:24.849Z,6.75
2023-02-28T15:17:00.574Z,6.84
2023-02-28T15:19:34.840Z,6.84
2023-02-28T15:22:10.140Z,6.79
2023-02-28T15:24:48.707Z,6.76
2023-02-28T15:27:25.877Z,6.72
2023-02-28T15:30:02.075Z,6.62
2023-02-28T15:32:37.170Z,6.49
2023-02-28T15:35:29.651Z,6.46
2023-02-28T15:38:06.506Z,6.40
2023-02-28T15:40:43.209Z,6.31
2023-02-28T15:43:19.879Z,6.13
2023-02-28T15:45:54.507Z,6.07
2023-02-28T15:48:30.129Z,6.08
2023-02-28T15:51:08.382Z,6.10
2023-02-28T15:53:49.797Z,6.04
2023-02-28T15:56:28.092Z,5.97
2023-02-28T15:59:02.797Z,5.84
2023-02-28T16:01:36.624Z,5.73
2023-02-28T16:04:15.621Z,5.75
2023-02-28T16:07:13.084Z,5.72
2023-02-28T16:09:48.129Z,5.67
2023-02-28T16:12:20.287Z,5.73
2023-02-28T16:14:55.232Z,5.72
2023-02-28T16:17:29.730Z,5.60
2023-02-28T16:20:01.947Z,5.48
2023-02-28T16:22:34.021Z,5.39
2023-02-28T16:25:09.192Z,5.29
2023-02-28T16:27:46.029Z,5.23
2023-02-28T16:30:25.170Z,5.16
2023-02-28T16:33:00.831Z,5.15
2023-02-28T16:35:32.865Z,5.06
2023-02-28T16:38:04.754Z,5.01
2023-02-28T16:40:41.057Z,5.01
2023-02-28T16:43:22.105Z,4.99
2023-02-28T16:46:01.713Z,4.78
2023-02-28T16:48:35.745Z,4.66
2023-02-28T16:51:11.604Z,4.58
2023-02-28T16:53:45.185Z,4.52
2023-02-28T16:56:21.158Z,4.43
2023-02-28T16:59:01.418Z,4.41
2023-02-28T17:01:33.960Z,4.35
2023-02-28T17:04:04.956Z,4.29
2023-02-28T17:06:37.230Z,4.30
2023-02-28T17:09:16.148Z,4.34
2023-02-28T17:11:48.661Z,4.27
2023-02-28T17:14:21.999Z,4.27
2023-02-28T17:16:53.762Z,4.18
2023-02-28T17:19:32.590Z,4.11
2023-02-28T17:22:04.986Z,4.09
2023-02-28T17:24:36.714Z,4.03
2023-02-28T17:27:11.380Z,4.04
2023-02-28T17:29:43.663Z,3.96
2023-02-28T17:32:18.211Z,3.93
2023-02-28T17:34:50.502Z,3.90
2023-02-28T17:37:23.206Z,3.80
2023-02-28T17:39:55.299Z,3.70
2023-02-28T17:42:27.361Z,3.64
2023-02-28T17:44:59.047Z,3.52
2023-02-28T17:47:30.902Z,3.55
2023-02-28T17:50:03.099Z,3.52
2023-02-28T17:52:37.723Z,3.42
2023-02-28T17:55:11.574Z,3.35
2023-02-28T17:57:43.904Z,3.29
2023-02-28T18:00:19.822Z,3.21
2023-02-28T18:02:52.381Z,3.21
2023-02-28T18:05:23.165Z,3.23
2023-02-28T18:07:56.179Z,3.21
2023-02-28T18:10:28.431Z,3.16
2023-02-28T18:13:00.869Z,3.12
2023-02-28T18:15:32.889Z,3.13
2023-02-28T18:18:04.806Z,3.11
2023-02-28T18:20:37.138Z,3.08
2023-02-28T18:23:09.183Z,2.96
2023-02-28T18:25:42.602Z,2.94
2023-02-28T18:28:14.616Z,2.97
2023-02-28T18:30:46.435Z,2.88
2023-02-28T18:33:20.027Z,2.82
2023-02-28T18:35:59.393Z,2.86
2023-02-28T18:38:31.405Z,2.88
2023-02-28T18:41:05.465Z,2.75
2023-02-28T18:43:39.412Z,2.59
2023-02-28T18:46:12.937Z,2.52
2023-02-28T18:48:45.269Z,2.59
2023-02-28T18:51:20.604Z,2.54
2023-02-28T18:53:53.299Z,2.55
2023-02-28T18:56:26.969Z,2.54
2023-02-28T18:58:58.731Z,2.54
2023-02-28T19:01:32.574Z,2.53
2023-02-28T19:04:05.672Z,2.53
2023-02-28T19:06:38.214Z,2.46
2023-02-28T19:09:10.912Z,2.29
2023-02-28T19:11:41.152Z,2.15
2023-02-28T19:14:13.466Z,2.07
2023-02-28T19:16:47.141Z,2.12
2023-02-28T19:19:18.866Z,2.19
2023-02-28T19:21:50.555Z,2.17
2023-02-28T19:24:22.486Z,2.01
2023-02-28T19:26:54.420Z,1.89
2023-02-28T19:29:26.201Z,1.75
2023-02-28T19:31:58.773Z,1.74
2023-02-28T19:34:31.044Z,1.87
2023-02-28T19:37:02.916Z,1.96
2023-02-28T19:39:41.046Z,1.96
2023-02-28T19:42:14.383Z,1.91
2023-02-28T19:44:46.767Z,1.89
2023-02-28T19:47:18.858Z,1.67
2023-02-28T19:49:50.640Z,1.51
2023-02-28T19:52:22.865Z,1.52
2023-02-28T19:54:55.028Z,1.63
2023-02-28T19:57:27.118Z,1.59
2023-02-28T19:59:59.030Z,1.45
2023-02-28T20:02:30.847Z,1.39
2023-02-28T20:05:05.471Z,1.44
2023-02-28T20:07:37.755Z,1.40
2023-02-28T20:10:11.453Z,1.40
2023-02-28T20:12:43.099Z,1.39
2023-02-28T20:15:15.631Z,1.27
2023-02-28T20:17:47.323Z,1.20
2023-02-28T20:20:19.793Z,1.10
2023-02-28T20:22:51.795Z,1.11
2023-02-28T20:25:23.541Z,1.20
2023-02-28T20:27:55.347Z,1.07
2023-02-28T20:30:27.159Z,1.11
2023-02-28T20:32:58.973Z,1.15
2023-02-28T20:35:31.358Z,1.04
2023-02-28T20:38:03.218Z,0.89
2023-02-28T20:40:35.392Z,0.87
2023-02-28T20:43:07.491Z,1.14
2023-02-28T20:45:40.352Z,1.07
2023-02-28T20:48:12.706Z,1.05
2023-02-28T20:50:51.029Z,0.96
2023-02-28T20:53:24.106Z,0.75
2023-02-28T20:56:00.213Z,0.69
2023-02-28T20:58:34.747Z,0.66
2023-02-28T21:01:15.995Z,0.76
2023-02-28T21:03:50.331Z,0.64
2023-02-28T21:06:24.855Z,0.54
2023-02-28T21:08:58.266Z,0.55
2023-02-28T21:11:32.465Z,0.53
2023-02-28T21:14:06.165Z,0.51
2023-02-28T21:16:38.483Z,0.61
2023-02-28T21:19:10.556Z,0.67
2023-02-28T21:21:44.299Z,0.60
2023-02-28T21:24:18.500Z,0.58
2023-02-28T21:26:52.323Z,0.51
2023-02-28T21:29:24.246Z,0.52
2023-02-28T21:31:56.519Z,0.44
2023-02-28T21:34:28.400Z,0.45
2023-02-28T21:37:00.617Z,0.43
2023-02-28T21:39:32.373Z,0.48
2023-02-28T21:42:04.508Z,0.60
2023-02-28T21:44:36.287Z,0.69
2023-02-28T21:47:08.631Z,0.59
2023-02-28T21:49:40.418Z,0.47
2023-02-28T21:52:12.234Z,0.31
2023-02-28T21:54:44.788Z,0.29
2023-02-28T21:57:17.138Z,0.20
2023-02-28T21:59:49.072Z,0.31
2023-02-28T22:02:20.869Z,0.21
2023-02-28T22:04:53.443Z,0.25
2023-02-28T22:07:23.773Z,0.27
2023-02-28T22:09:55.595Z,0.29
2023-02-28T22:12:27.407Z,0.27
2023-02-28T22:14:59.462Z,0.37
2023-02-28T22:17:31.680Z,0.27
2023-02-28T22:20:04.322Z,0.20
2023-02-28T22:22:36.048Z,0.31
2023-02-28T22:25:10.690Z,0.13
2023-02-28T22:27:42.460Z,0.13
2023-02-28T22:30:15.544Z,0.12
2023-02-28T22:32:47.504Z,0.22
2023-02-28T22:35:20.693Z,0.33
2023-02-28T22:37:54.161Z,0.37
2023-02-28T22:40:26.001Z,0.41
2023-02-28T22:42:57.757Z,0.43
2023-02-28T22:45:29.490Z,0.43
2023-02-28T22:48:01.782Z,0.24
2023-02-28T22:50:34.121Z,0.05
2023-02-28T22:53:05.844Z,0.11
2023-02-28T22:55:37.731Z,0.26
2023-02-28T22:58:09.591Z,0.33
2023-02-28T23:00:41.659Z,0.33
2023-02-28T23:03:13.383Z,0.17
2023-02-28T23:05:45.323Z,0.08
2023-02-28T23:08:17.384Z,-0.10
2023-02-28T23:10:49.307Z,-0.10
2023-02-28T23:13:21.864Z,-0.13
2023-02-28T23:15:53.540Z,0.01
2023-02-28T23:18:25.883Z,0.04
2023-02-28T23:21:00.838Z,0.06
2023-02-28T23:23:32.671Z,0.11
2023-02-28T23:26:09.370Z,0.05
2023-02-28T23:28:41.826Z,0.02
2023-02-28T23:31:14.300Z,-0.10
2023-02-28T23:33:46.029Z,0.01
2023-02-28T23:36:18.509Z,0.07
2023-02-28T23:38:53.247Z,0.11
2023-02-28T23:41:25.692Z,0.16
2023-02-28T23:43:56.188Z,0.07
2023-02-28T23:46:28.025Z,-0.07
2023-02-28T23:49:00.910Z,-0.21
2023-02-28T23:51:32.720Z,-0.16
2023-02-28T23:54:04.965Z,-0.13
2023-02-28T23:56:37.006Z,-0.25
2023-02-28T23:59:08.669Z,-0.34
